Pasadena 2N

39° 08' 31"N, 76° 30' 27"W, Elevation 43 ft.
Eastern Time

Hourly observations for the last 72 hours

Date Time Temperature (°F) Humi-
dity

(%)
Wind
(mph)
Pressure Rain (in) Sun
(W/m2)
ET
(in)
Air Dew 6 Hour 1 Hr 3 Hr 6 Hr Day
Alt
(in)
Sea
Level

(mb)
Max Min
22 17:00 64.1 43.5 47 S 3 G 10 30.33 1027.1 0.00 415 0.114
22 16:00 66.7 44.7 45 E 5 G 10 30.33 1027.3 0.00 552 0.099
22 15:00 65.3 38.4 37 E 5 G 11 30.35 1027.8 0.00 506 0.080
22 14:00 65.2 39.0 66.3 47.8 38 SE 5 G 12 30.36 1028.2 0.00 875 0.059
22 13:00 63.4 37.4 38 ENE 5 G 11 30.38 1028.9 0.00 907 0.039
22 12:00 60.9 34.5 37 NE 5 G 11 30.40 1029.4 0.00 751 0.021
22 11:00 59.8 36.1 41 ENE 8 G 14 30.41 1029.7 0.00 788 0.013
22 10:00 55.9 37.0 49 NE 3 G 12 30.41 1029.8 0.00 91 0.009
22 09:00 54.7 41.1 60 ENE 3 G 9 30.41 1029.8 0.00 63 0.006
22 08:00 47.8 42.9 47.8 41.7 83 ESE 2 G 6 30.40 1029.5 0.00 91 0.005
22 07:00 42.1 38.2 86 NNE 2 G 4 30.40 1029.6 0.00 25 0.005
22 06:00 42.4 37.6 83 NNE 1 G 3 30.38 1029.0 0.00 0 0.004
22 05:00 42.9 38.1 83 SSE 1 G 2 30.37 1028.4 0.00 0 0.004
22 04:00 44.3 38.5 80 SSE 0 G 2 30.36 1028.3 0.00 0 0.003
22 03:00 45.7 38.6 76 Calm 30.35 1027.9 0.00 0 0.002
22 02:00 46.6 39.1 51.7 43.9 75 SSE 1 G 2 30.36 1028.2 0.00 0 0.001
22 01:00 46.0 38.2 74 SSE 1 G 4 30.37 1028.6 0.00 0 0.000
22 00:00 46.0 39.2 77 SSE 3 G 6 30.35 1027.9 0.00 0 0.140
21 23:00 44.5 37.4 76 SSE 2 G 5 30.36 1028.1 0.00 0 0.139
21 22:00 44.2 35.0 70 SSE 2 G 5 30.36 1028.0 0.00 0 0.138
21 21:00 47.3 34.9 62 SE 1 G 2 30.35 1027.9 0.00 0 0.136
21 20:00 51.7 34.6 62.1 51.7 52 SE 3 G 7 30.34 1027.5 0.00 0 0.134
21 19:00 56.0 35.0 45 SSE 2 G 8 30.33 1027.0 0.00 53 0.131
21 18:00 58.7 35.1 41 S 2 G 8 30.32 1026.9 0.00 121 0.122
21 17:00 59.9 36.8 42 ESE 3 G 9 30.33 1027.0 0.00 313 0.110
21 16:00 60.9 37.1 41 SSE 4 G 10 30.34 1027.4 0.00 638 0.093
21 15:00 61.5 38.8 43 ENE 2 G 7 30.35 1027.8 0.00 842 0.074
21 14:00 58.1 31.3 58.3 36.1 36 NW 3 G 9 30.38 1028.7 0.00 900 0.054
21 13:00 57.0 30.3 36 NE 5 G 10 30.40 1029.6 0.00 891 0.036
21 12:00 54.2 31.6 42 NNW 3 G 6 30.44 1031.0 0.00 854 0.020
21 11:00 51.7 31.0 45 ENE 4 G 11 30.47 1031.8 0.00 726 0.013
21 10:00 48.0 31.7 53 NE 3 G 8 30.48 1032.2 0.00 88 0.010
21 09:00 45.4 30.2 55 WNW 3 G 6 30.48 1032.2 0.00 113 0.008
21 08:00 36.1 30.5 44.0 31.6 80 NE 0 G 2 30.47 1031.9 0.00 65 0.007
21 07:00 31.9 27.3 83 NE 1 G 2 30.45 1031.3 0.00 23 0.007
21 06:00 32.5 27.0 80 Calm 30.44 1030.9 0.00 0 0.007
21 05:00 34.6 27.5 75 NE 0 G 1 30.44 1030.9 0.00 0 0.006
21 04:00 38.2 28.2 67 NE 1 G 1 30.44 1030.7 0.00 0 0.005
21 03:00 41.4 27.7 58 ENE 1 G 6 30.42 1030.3 0.00 0 0.004
21 02:00 43.8 28.7 54.1 43.5 55 NE 4 G 9 30.42 1030.1 0.00 0 0.002
21 01:00 44.9 29.7 55 E 2 G 6 30.41 1029.8 0.00 0 0.000
21 00:00 46.7 30.9 54 NE 4 G 10 30.39 1029.0 0.00 0 0.154
20 23:00 48.9 32.1 52 NE 5 G 12 30.36 1028.2 0.00 0 0.152
20 22:00 45.2 30.9 57 WSW 0 G 1 30.33 1027.0 0.00 0 0.151
20 21:00 49.6 31.7 50 WNW 1 G 4 30.31 1026.5 0.00 0 0.149
20 20:00 54.1 30.9 60.9 54.1 41 WNW 2 G 6 30.28 1025.5 0.00 0 0.147
20 19:00 56.5 29.9 36 W 4 G 11 30.26 1024.7 0.00 25 0.144
20 18:00 58.8 30.5 34 WNW 6 G 15 30.25 1024.5 0.00 51 0.133
20 17:00 60.3 31.1 33 WNW 6 G 14 30.24 1024.2 0.00 531 0.117
20 16:00 60.5 34.1 37 NW 3 G 14 30.24 1024.1 0.00 705 0.099
20 15:00 57.5 31.4 37 WSW 7 G 16 30.24 1024.2 0.00 837 0.079
20 14:00 56.0 30.1 56.5 39.1 37 W 7 G 15 30.26 1024.8 0.00 911 0.059
20 13:00 54.0 30.2 40 WNW 4 G 10 30.27 1025.0 0.00 930 0.040
20 12:00 51.8 28.9 41 NW 3 G 8 30.27 1025.2 0.00 884 0.023
20 11:00 48.1 28.3 46 NW 2 G 13 30.28 1025.3 0.00 782 0.015
20 10:00 44.5 26.5 49 NW 5 G 19 30.27 1025.0 0.00 60 0.012
20 09:00 41.9 26.9 55 WNW 4 G 12 30.25 1024.5 0.00 49 0.010
20 08:00 39.1 26.0 39.8 34.6 59 W 4 G 11 30.25 1024.4 0.00 37 0.009
20 07:00 35.7 25.5 66 WSW 2 G 8 30.24 1024.1 0.00 21 0.008
20 06:00 35.0 24.8 66 W 3 G 6 30.23 1023.6 0.00 0 0.007
20 05:00 37.1 24.9 61 W 4 G 13 30.20 1022.8 0.00 0 0.006
20 04:00 37.9 24.4 58 W 3 G 8 30.19 1022.5 0.00 0 0.004
20 03:00 38.9 24.1 55 W 5 G 13 30.17 1021.7 0.00 0 0.002
20 02:00 39.3 24.5 44.6 34.6 55 WNW 4 G 11 30.16 1021.2 0.00 0 0.001
20 01:00 37.6 27.3 66 W 2 G 8 30.14 1020.7 0.00 0 0.000
20 00:00 35.3 27.2 72 WSW 1 G 2 30.12 1020.1 0.00 0 0.069
19 23:00 39.8 27.8 62 WSW 0 G 3 30.12 1020.0 0.00 0 0.068
19 22:00 42.4 28.2 57 WNW 2 G 12 30.12 1020.0 0.00 0 0.066
19 21:00 44.2 28.6 54 W 5 G 14 30.10 1019.3 0.00 0 0.064
19 20:00 44.6 28.1 55.5 44.6 52 WNW 8 G 25 30.06 1018.0 0.00 0 0.062
19 19:00 46.0 29.8 53 WNW 7 G 17 30.02 1016.7 0.00 26 0.058
19 18:00 48.1 28.8 47 W 10 G 25 29.97 1014.8 0.00 111 0.052

Data generated by WxSolution Version 1.9.0.7, Build 2017.01.19.